San Francisco, CA (94114)

4:57 AM PDT on September 03, 2015 (GMT -0700)
Collingwood Hill/Noe Valley-Castro | | Change Station
CLOSE
Current Station
Personal Weather Station
Location: San Francisco, CA
Elevation: 348 ft
Nearby Weather Stations

Elev 348 ft 37.76 °N, 122.44 °W | Updated 19 seconds ago

Mostly Cloudy
Mostly Cloudy
58.3 °F
Feels Like 58.3 °F
N
17.9
Wind Variable Wind from WSW
Gusts 20.0 mph

Today
High -- | Low -- °F
--% Chance of Precip.
Yesterday
High -- | Low -- °F
Precip. -- in
6:41 AM 7:36 PM
Waning Gibbous, 71% visible
Pressure 29.92 in
Visibility 10.0 miles
Clouds Scattered Clouds 1000 ft
Dew Point 56 °F
Humidity 94%
Rainfall 0.00 in
Snow Depth Not available.
UV 0 out of 12
Pollen 8.00 out of 12
Air Quality Not available.
Flu Activity Not available.
METAR KSFO 031056Z 25017KT 10SM SCT010 16/13 A2992 RMK AO2 SLP131 T01610133
Pressure 29.92 in
Visibility 10.0 miles
Clouds Scattered Clouds 1000 ft
Dew Point 56 °F
Humidity 94%
Rainfall 0.00 in
Snow Depth Not available.
UV 0 out of 12
Pollen 8.00 out of 12
Air Quality Not available.
Flu Activity Not available.
METAR KSFO 031056Z 25017KT 10SM SCT010 16/13 A2992 RMK AO2 SLP131 T01610133

10-Day Weather Forecast

×

Almanac

Astronomy

Sep. 03, 2015 Rise Set
Actual Time
Civil Twilight
Nautical Twilight
Astronomical Twilight
Moon
Length of Visible Light
Length of Day
Tomorrow will be .
, % of the Moon is Illuminated

Today's Extremes

State Highs State Lows

Community

WunderPhotos

Upload Photos

1,851,941 photos uploaded!

WunderBlogs® & News

Nearby

Air Quality

  Air Quality AQ Index Pollutant
Not available.

Snow Depth

Station Depth Elevation

Earthquake Activity

City Distance Mag. Time & Date
Minimum magnitude displayed is 2.5.

Coastal Water Temperatures

Place Temperature

Stations

Nearby Weather Stations

Station Location Temp. Windchill Dew Point Humidity Wind Precip. Elev Updated Type